createdAt,value
2019-06-10T00:00:36.081Z,4.15
2019-06-10T00:03:07.260Z,3.40
2019-06-10T00:05:37.271Z,3.60
2019-06-10T00:08:07.247Z,4.12
2019-06-10T00:10:37.573Z,4.12
2019-06-10T00:13:08.631Z,5.03
2019-06-10T00:15:40.955Z,4.83
2019-06-10T00:18:34.155Z,5.28
2019-06-10T00:20:42.669Z,5.33
2019-06-10T00:23:12.866Z,3.90
2019-06-10T00:25:42.837Z,4.83
2019-06-10T00:28:12.933Z,4.92
2019-06-10T00:30:43.168Z,5.22
2019-06-10T00:33:13.390Z,5.85
2019-06-10T00:35:44.624Z,5.15
2019-06-10T00:38:14.843Z,4.50
2019-06-10T00:40:45.163Z,4.53
2019-06-10T00:43:15.040Z,5.40
2019-06-10T00:45:45.210Z,5.50
2019-06-10T00:48:25.297Z,4.47
2019-06-10T00:50:51.598Z,5.65
2019-06-10T00:53:21.184Z,5.10
2019-06-10T00:55:52.535Z,4.83
2019-06-10T00:58:22.702Z,4.50
2019-06-10T01:00:52.886Z,5.53
2019-06-10T01:03:23.074Z,6.03
2019-06-10T01:05:53.183Z,5.72
2019-06-10T01:08:23.503Z,5.58
2019-06-10T01:10:53.751Z,5.05
2019-06-10T01:13:24.034Z,5.62
2019-06-10T01:15:54.217Z,5.45
2019-06-10T01:18:34.667Z,5.08
2019-06-10T01:20:56.389Z,4.85
2019-06-10T01:23:26.222Z,5.67
2019-06-10T01:25:56.406Z,5.72
2019-06-10T01:28:26.353Z,5.37
2019-06-10T01:30:56.447Z,5.60
2019-06-10T01:33:26.675Z,5.65
2019-06-10T01:35:56.624Z,5.25
2019-06-10T01:38:26.903Z,5.90
2019-06-10T01:40:58.043Z,5.12
2019-06-10T01:43:28.289Z,5.58
2019-06-10T01:45:58.177Z,5.17
2019-06-10T01:48:40.558Z,4.45
2019-06-10T01:51:01.839Z,5.30
2019-06-10T01:53:32.096Z,4.80
2019-06-10T01:56:02.300Z,4.78
2019-06-10T01:58:32.167Z,4.55
2019-06-10T02:01:23.369Z,5.00
2019-06-10T02:03:53.525Z,5.28
2019-06-10T02:06:25.793Z,4.87
2019-06-10T02:08:56.982Z,5.50
2019-06-10T02:11:27.108Z,5.08
2019-06-10T02:13:57.251Z,6.20
2019-06-10T02:16:27.451Z,5.45
2019-06-10T02:19:00.801Z,5.35
2019-06-10T02:21:31.128Z,5.47
2019-06-10T02:24:01.148Z,6.50
2019-06-10T02:26:31.334Z,5.40
2019-06-10T02:29:01.264Z,5.60
2019-06-10T02:31:37.445Z,5.90
2019-06-10T02:34:03.098Z,6.40
2019-06-10T02:36:36.784Z,6.85
2019-06-10T02:39:08.194Z,6.53
2019-06-10T02:41:39.151Z,5.83
2019-06-10T02:44:09.210Z,6.40
2019-06-10T02:46:39.184Z,5.08
2019-06-10T02:49:23.215Z,5.62
2019-06-10T02:51:43.723Z,6.80
2019-06-10T02:54:16.074Z,5.97
2019-06-10T02:56:45.105Z,6.53
2019-06-10T02:59:16.204Z,7.05
2019-06-10T03:01:47.046Z,6.97
2019-06-10T03:04:18.374Z,6.35
2019-06-10T03:06:54.076Z,6.57
2019-06-10T03:09:26.419Z,6.12
2019-06-10T03:11:53.458Z,6.60
2019-06-10T03:14:25.261Z,5.87
2019-06-10T03:16:57.331Z,5.30
2019-06-10T03:19:42.198Z,4.95
2019-06-10T03:22:02.603Z,6.08
2019-06-10T03:24:32.767Z,5.12
2019-06-10T03:27:04.157Z,5.20
2019-06-10T03:29:34.340Z,6.12
2019-06-10T03:32:05.147Z,5.97
2019-06-10T03:34:41.576Z,6.42
2019-06-10T03:37:07.761Z,6.97
2019-06-10T03:39:37.874Z,6.35
2019-06-10T03:42:08.069Z,6.78
2019-06-10T03:44:38.221Z,6.25
2019-06-10T03:47:08.412Z,5.25
2019-06-10T03:49:49.963Z,6.30
2019-06-10T03:52:12.827Z,6.20
2019-06-10T03:54:43.270Z,6.60
2019-06-10T03:57:13.681Z,6.05
2019-06-10T03:59:43.811Z,5.53
2019-06-10T04:02:14.088Z,7.35
2019-06-10T04:04:44.228Z,6.17
2019-06-10T04:07:14.494Z,6.53
2019-06-10T04:09:44.725Z,5.75
2019-06-10T04:12:15.040Z,6.28
2019-06-10T04:14:45.235Z,6.35
2019-06-10T04:17:15.462Z,5.60
2019-06-10T04:19:45.679Z,5.78
2019-06-10T04:22:15.974Z,7.03
2019-06-10T04:24:46.127Z,6.67
2019-06-10T04:27:17.497Z,6.25
2019-06-10T04:29:47.955Z,6.60
2019-06-10T04:32:18.247Z,7.17
2019-06-10T04:34:48.385Z,7.05
2019-06-10T04:37:18.591Z,8.10
2019-06-10T04:39:48.865Z,7.00
2019-06-10T04:42:20.316Z,7.78
2019-06-10T04:44:52.562Z,6.77
2019-06-10T04:47:23.767Z,6.08
2019-06-10T04:49:54.450Z,8.40
2019-06-10T04:52:25.162Z,7.95
2019-06-10T04:54:56.655Z,8.18
2019-06-10T04:57:28.052Z,8.18
2019-06-10T04:59:58.405Z,6.90
2019-06-10T05:02:30.023Z,8.58
2019-06-10T05:05:02.686Z,7.90
2019-06-10T05:07:36.637Z,7.80
2019-06-10T05:10:05.867Z,8.10
2019-06-10T05:12:36.086Z,7.97
2019-06-10T05:15:06.836Z,7.55
2019-06-10T05:17:37.057Z,8.63
2019-06-10T05:20:08.080Z,7.62
2019-06-10T05:22:38.205Z,6.87
2019-06-10T05:25:08.468Z,7.22
2019-06-10T05:27:39.569Z,8.48
2019-06-10T05:30:12.269Z,6.85
2019-06-10T05:32:43.258Z,7.12
2019-06-10T05:35:13.847Z,7.20
2019-06-10T05:37:43.748Z,7.03
2019-06-10T05:40:14.211Z,8.25
2019-06-10T05:42:44.403Z,7.85
2019-06-10T05:45:14.382Z,8.03
2019-06-10T05:47:44.592Z,9.25
2019-06-10T05:50:14.553Z,7.05
2019-06-10T05:52:44.695Z,8.18
2019-06-10T05:55:14.969Z,8.03
2019-06-10T05:57:44.828Z,6.97
2019-06-10T06:00:16.111Z,8.30
2019-06-10T06:02:46.131Z,7.17
2019-06-10T06:05:16.590Z,6.58
2019-06-10T06:07:58.926Z,6.97
2019-06-10T06:10:18.776Z,5.95
2019-06-10T06:13:08.340Z,6.50
2019-06-10T06:15:38.550Z,6.00
2019-06-10T06:18:10.671Z,5.58
2019-06-10T06:20:43.491Z,5.17
2019-06-10T06:23:12.483Z,5.83
2019-06-10T06:25:46.298Z,5.67
2019-06-10T06:28:16.167Z,5.37
2019-06-10T06:30:46.644Z,5.83
2019-06-10T06:33:16.871Z,5.42
2019-06-10T06:35:47.271Z,6.35
2019-06-10T06:38:22.449Z,5.25
2019-06-10T06:40:53.764Z,4.90
2019-06-10T06:43:24.234Z,4.93
2019-06-10T06:45:54.577Z,5.03
2019-06-10T06:48:24.850Z,4.55
2019-06-10T06:51:04.409Z,4.10
2019-06-10T06:53:33.179Z,4.62
2019-06-10T06:55:58.931Z,4.13
2019-06-10T06:58:29.132Z,4.20
2019-06-10T07:01:10.274Z,3.95
2019-06-10T07:03:38.125Z,5.17
2019-06-10T07:06:08.331Z,5.40
2019-06-10T07:08:41.494Z,4.12
2019-06-10T07:11:15.306Z,4.20
2019-06-10T07:13:46.160Z,3.90
2019-06-10T07:16:18.875Z,3.75
2019-06-10T07:18:50.405Z,4.15
2019-06-10T07:21:22.739Z,3.45
2019-06-10T07:23:53.075Z,3.35
2019-06-10T07:26:23.173Z,2.87
2019-06-10T07:28:53.913Z,2.80
2019-06-10T07:31:27.822Z,3.17
2019-06-10T07:33:58.292Z,3.10
2019-06-10T07:38:58.689Z,2.22
2019-06-10T07:41:34.422Z,2.98
2019-06-10T07:44:07.652Z,2.50
2019-06-10T07:46:39.275Z,2.50
2019-06-10T07:49:09.724Z,2.08
2019-06-10T07:51:41.362Z,2.45
2019-06-10T07:54:12.446Z,2.05
2019-06-10T07:56:49.805Z,1.95
2019-06-10T07:59:16.133Z,1.50
2019-06-10T08:01:55.395Z,2.00
2019-06-10T08:04:44.573Z,1.80
2019-06-10T08:07:35.253Z,1.80
2019-06-10T08:10:19.573Z,2.00
2019-06-10T08:12:52.335Z,2.50
2019-06-10T08:15:49.938Z,3.20
2019-06-10T08:18:22.527Z,3.62
2019-06-10T08:20:52.961Z,9.70
2019-06-10T08:23:23.918Z,2.60
2019-06-10T08:26:03.534Z,12.78
2019-06-10T08:28:35.502Z,6.33
2019-06-10T08:31:17.486Z,5.08
2019-06-10T08:33:53.282Z,2.55
2019-06-10T08:36:33.361Z,1.90
2019-06-10T08:39:15.618Z,2.30
2019-06-10T08:41:49.052Z,2.02
2019-06-10T08:44:26.460Z,2.30
2019-06-10T08:46:58.484Z,2.45
2019-06-10T08:49:32.586Z,1.95
2019-06-10T08:52:04.691Z,1.90
2019-06-10T08:54:39.612Z,3.75
2019-06-10T08:57:12.458Z,2.22
2019-06-10T08:59:45.594Z,1.95
2019-06-10T09:04:47.626Z,4.67
2019-06-10T09:07:15.575Z,16.00
2019-06-10T09:09:48.627Z,13.35
2019-06-10T09:12:30.299Z,6.30
2019-06-10T09:14:50.693Z,10.70
2019-06-10T09:17:22.818Z,6.17
2019-06-10T09:19:54.192Z,4.50
2019-06-10T09:22:26.007Z,5.72
2019-06-10T09:24:56.603Z,2.45
2019-06-10T09:27:27.225Z,2.45
2019-06-10T09:29:57.742Z,2.60
2019-06-10T09:32:27.990Z,2.35
2019-06-10T09:34:58.416Z,2.45
2019-06-10T09:37:28.350Z,2.60
2019-06-10T09:39:59.877Z,2.67
2019-06-10T09:42:30.444Z,2.37
2019-06-10T09:45:02.707Z,2.62
2019-06-10T09:47:34.781Z,3.12
2019-06-10T09:50:09.007Z,2.85
2019-06-10T09:52:43.030Z,2.20
2019-06-10T09:55:12.864Z,2.10
2019-06-10T09:57:45.132Z,1.90
2019-06-10T10:00:17.628Z,2.30
2019-06-10T10:02:50.442Z,2.20
2019-06-10T10:05:19.147Z,1.87
2019-06-10T10:07:51.935Z,1.90
2019-06-10T10:10:24.787Z,2.45
2019-06-10T10:12:55.810Z,2.15
2019-06-10T10:15:30.805Z,2.15
2019-06-10T10:17:58.169Z,2.42
2019-06-10T10:20:30.094Z,2.62
2019-06-10T10:23:02.718Z,2.12
2019-06-10T10:25:33.427Z,2.47
2019-06-10T10:28:04.807Z,2.10
2019-06-10T10:30:34.828Z,2.30
2019-06-10T10:33:05.479Z,2.87
2019-06-10T10:35:36.539Z,2.72
2019-06-10T10:38:06.533Z,2.62
2019-06-10T10:40:36.840Z,2.40
2019-06-10T10:43:23.269Z,2.60
2019-06-10T10:45:38.886Z,2.83
2019-06-10T10:48:09.088Z,2.80
2019-06-10T10:50:39.979Z,2.85
2019-06-10T10:53:12.847Z,2.15
2019-06-10T10:55:45.196Z,2.30
2019-06-10T10:58:15.748Z,2.90
2019-06-10T11:00:49.261Z,3.15
2019-06-10T11:03:17.948Z,2.90
2019-06-10T11:05:49.929Z,2.55
2019-06-10T11:08:19.936Z,3.03
2019-06-10T11:10:58.765Z,3.25
2019-06-10T11:13:28.319Z,6.20
2019-06-10T11:16:11.585Z,22.75
2019-06-10T11:18:45.271Z,3.80
2019-06-10T11:21:16.450Z,2.27
2019-06-10T11:23:48.118Z,3.20
2019-06-10T11:26:18.568Z,2.92
2019-06-10T11:28:49.525Z,2.77
2019-06-10T11:31:19.608Z,3.10
2019-06-10T11:33:56.974Z,2.67
2019-06-10T11:36:23.822Z,3.30
2019-06-10T11:38:56.936Z,3.12
2019-06-10T11:41:25.558Z,2.87
2019-06-10T11:43:59.008Z,3.17
2019-06-10T11:46:27.763Z,2.90
2019-06-10T11:48:59.083Z,2.80
2019-06-10T11:51:29.505Z,2.80
2019-06-10T11:53:59.850Z,2.95
2019-06-10T11:56:29.704Z,2.87
2019-06-10T11:59:03.980Z,3.05
2019-06-10T12:01:31.650Z,3.33
2019-06-10T12:04:04.129Z,3.90
2019-06-10T12:06:34.095Z,4.00
2019-06-10T12:09:08.524Z,3.20
2019-06-10T12:11:38.602Z,8.75
2019-06-10T12:14:09.089Z,3.67
2019-06-10T12:19:12.771Z,3.27
2019-06-10T12:21:43.619Z,4.08
2019-06-10T12:24:13.813Z,4.20
2019-06-10T12:26:44.226Z,3.65
2019-06-10T12:29:14.463Z,3.70
2019-06-10T12:31:44.440Z,3.58
2019-06-10T12:34:14.392Z,2.50
2019-06-10T12:36:44.792Z,2.62
2019-06-10T12:39:17.492Z,2.80
2019-06-10T12:41:47.821Z,2.77
2019-06-10T12:44:18.223Z,3.08
2019-06-10T12:46:54.888Z,3.10
2019-06-10T12:49:23.501Z,3.17
2019-06-10T12:51:54.798Z,3.12
2019-06-10T12:54:26.250Z,3.30
2019-06-10T12:56:58.015Z,3.30
2019-06-10T12:59:28.073Z,3.37
2019-06-10T13:02:01.869Z,3.83
2019-06-10T13:04:31.232Z,4.35
2019-06-10T13:07:05.061Z,3.80
2019-06-10T13:09:34.687Z,3.70
2019-06-10T13:12:04.716Z,3.37
2019-06-10T13:14:35.122Z,3.50
2019-06-10T13:17:05.765Z,3.47
2019-06-10T13:19:35.921Z,3.33
2019-06-10T13:22:07.143Z,3.70
2019-06-10T13:24:38.336Z,3.00
2019-06-10T13:27:09.393Z,3.22
2019-06-10T13:29:39.561Z,3.42
2019-06-10T13:32:09.822Z,3.58
2019-06-10T13:34:42.466Z,3.58
2019-06-10T13:37:15.849Z,3.87
2019-06-10T13:39:43.853Z,3.00
2019-06-10T13:42:14.581Z,3.30
2019-06-10T13:44:44.570Z,3.05
2019-06-10T13:47:16.441Z,2.83
2019-06-10T13:49:46.754Z,3.37
2019-06-10T13:52:17.155Z,3.25
2019-06-10T13:54:47.212Z,3.27
2019-06-10T13:57:17.606Z,3.30
2019-06-10T13:59:51.889Z,2.70
2019-06-10T14:02:24.590Z,3.00
2019-06-10T14:04:53.367Z,3.20
2019-06-10T14:07:24.095Z,3.25
2019-06-10T14:09:54.001Z,3.30
2019-06-10T14:12:24.401Z,3.05
2019-06-10T14:14:54.568Z,2.83
2019-06-10T14:17:24.996Z,3.83
2019-06-10T14:19:55.374Z,2.80
2019-06-10T14:22:25.821Z,2.65
2019-06-10T14:24:56.213Z,3.10
2019-06-10T14:27:26.554Z,3.05
2019-06-10T14:29:56.855Z,2.90
2019-06-10T14:32:27.070Z,3.30
2019-06-10T14:34:57.187Z,3.37
2019-06-10T14:37:35.727Z,2.75
2019-06-10T14:40:03.505Z,3.02
2019-06-10T14:42:32.531Z,3.10
2019-06-10T14:45:02.524Z,3.62
2019-06-10T14:47:32.972Z,3.30
2019-06-10T14:50:03.391Z,2.83
2019-06-10T14:52:34.895Z,2.60
2019-06-10T14:55:07.080Z,3.20
2019-06-10T14:57:37.529Z,3.50
2019-06-10T15:00:09.783Z,3.42
2019-06-10T15:02:42.799Z,2.72
2019-06-10T15:05:15.729Z,3.25
2019-06-10T15:07:44.921Z,3.15
2019-06-10T15:10:17.869Z,3.35
2019-06-10T15:12:48.471Z,3.22
2019-06-10T15:15:21.064Z,4.83
2019-06-10T15:17:52.587Z,3.45
2019-06-10T15:20:23.183Z,3.25
2019-06-10T15:22:53.111Z,3.47
2019-06-10T15:25:27.914Z,4.08
2019-06-10T15:27:55.168Z,2.87
2019-06-10T15:30:28.000Z,3.10
2019-06-10T15:32:57.142Z,3.03
2019-06-10T15:35:27.436Z,3.22
2019-06-10T15:37:59.460Z,3.37
2019-06-10T15:40:29.439Z,2.90
2019-06-10T15:42:59.910Z,3.42
2019-06-10T15:45:32.388Z,3.37
2019-06-10T15:48:02.580Z,3.37
2019-06-10T15:50:32.728Z,3.17
2019-06-10T15:53:03.273Z,3.50
2019-06-10T15:56:05.810Z,4.13
2019-06-10T15:58:07.663Z,3.30
2019-06-10T16:00:42.414Z,4.17
2019-06-10T16:03:15.900Z,3.58
2019-06-10T16:05:44.740Z,3.27
2019-06-10T16:08:15.948Z,3.20
2019-06-10T16:10:46.917Z,3.35
2019-06-10T16:13:16.943Z,3.50
2019-06-10T16:15:47.304Z,3.55
2019-06-10T16:18:18.846Z,3.30
2019-06-10T16:20:49.155Z,3.33
2019-06-10T16:23:19.773Z,3.25
2019-06-10T16:25:50.191Z,3.72
2019-06-10T16:28:22.876Z,3.30
2019-06-10T16:30:53.719Z,2.95
2019-06-10T16:33:27.641Z,3.80
2019-06-10T16:35:55.964Z,3.35
2019-06-10T16:38:27.264Z,4.05
2019-06-10T16:40:57.855Z,4.15
2019-06-10T16:43:28.210Z,3.77
2019-06-10T16:45:58.303Z,3.92
2019-06-10T16:48:29.723Z,4.00
2019-06-10T16:50:59.854Z,3.62
2019-06-10T16:53:32.347Z,4.37
2019-06-10T16:56:03.333Z,4.00
2019-06-10T16:58:33.762Z,4.07
2019-06-10T17:01:04.401Z,3.98
2019-06-10T17:03:34.593Z,3.50
2019-06-10T17:06:05.539Z,3.80
2019-06-10T17:08:35.551Z,3.25
2019-06-10T17:11:05.975Z,3.60
2019-06-10T17:13:37.484Z,3.65
2019-06-10T17:16:07.410Z,4.45
2019-06-10T17:18:37.293Z,3.90
2019-06-10T17:21:07.794Z,4.12
2019-06-10T17:23:39.150Z,4.03
2019-06-10T17:26:09.466Z,4.60
2019-06-10T17:28:39.887Z,4.72
2019-06-10T17:31:10.177Z,5.05
2019-06-10T17:33:42.747Z,4.53
2019-06-10T17:36:12.604Z,4.35
2019-06-10T17:38:43.051Z,5.67
2019-06-10T17:41:16.453Z,4.80
2019-06-10T17:43:46.670Z,5.12
2019-06-10T17:46:16.693Z,5.75
2019-06-10T17:48:46.679Z,5.33
2019-06-10T17:51:16.649Z,5.72
2019-06-10T17:53:46.995Z,5.95
2019-06-10T17:56:33.660Z,6.30
2019-06-10T17:59:03.505Z,6.12
2019-06-10T18:01:35.511Z,6.03
2019-06-10T18:04:06.027Z,5.83
2019-06-10T18:06:36.538Z,6.17
2019-06-10T18:09:08.386Z,6.12
2019-06-10T18:11:38.925Z,5.83
2019-06-10T18:14:12.037Z,5.03
2019-06-10T18:16:42.655Z,5.70
2019-06-10T18:19:12.855Z,5.08
2019-06-10T18:21:42.870Z,5.60
2019-06-10T18:24:12.899Z,4.80
2019-06-10T18:26:43.250Z,4.60
2019-06-10T18:29:13.489Z,3.80
2019-06-10T18:31:43.914Z,4.28
2019-06-10T18:34:13.981Z,4.37
2019-06-10T18:36:43.942Z,4.95
2019-06-10T18:39:15.505Z,4.62
2019-06-10T18:41:46.144Z,4.62
2019-06-10T18:44:22.856Z,5.12
2019-06-10T18:46:48.299Z,4.83
2019-06-10T18:49:18.525Z,5.03
2019-06-10T18:51:48.715Z,5.00
2019-06-10T18:54:18.631Z,4.62
2019-06-10T18:56:48.524Z,4.28
2019-06-10T18:59:21.291Z,4.22
2019-06-10T19:01:52.723Z,4.75
2019-06-10T19:04:22.935Z,4.08
2019-06-10T19:06:53.353Z,3.72
2019-06-10T19:09:23.663Z,4.40
2019-06-10T19:11:55.524Z,4.85
2019-06-10T19:14:25.893Z,4.42
2019-06-10T19:16:56.193Z,4.70
2019-06-10T19:19:26.531Z,4.72
2019-06-10T19:22:05.502Z,4.55
2019-06-10T19:24:28.430Z,4.70
2019-06-10T19:27:02.041Z,5.08
2019-06-10T19:29:38.411Z,4.12
2019-06-10T19:32:03.884Z,4.53
2019-06-10T19:34:35.336Z,3.90
2019-06-10T19:37:05.919Z,4.00
2019-06-10T19:39:42.551Z,3.42
2019-06-10T19:42:09.337Z,4.10
2019-06-10T19:44:45.554Z,3.60
2019-06-10T19:47:13.525Z,4.35
2019-06-10T19:49:44.895Z,4.25
2019-06-10T19:52:15.428Z,5.00
2019-06-10T19:54:45.713Z,6.40
2019-06-10T19:57:15.654Z,6.28
2019-06-10T20:00:03.920Z,6.00
2019-06-10T20:02:17.460Z,6.30
2019-06-10T20:04:47.471Z,5.35
2019-06-10T20:07:17.737Z,5.62
2019-06-10T20:09:48.142Z,6.28
2019-06-10T20:12:19.905Z,5.08
2019-06-10T20:14:49.933Z,5.08
2019-06-10T20:17:22.610Z,5.92
2019-06-10T20:19:52.217Z,5.53
2019-06-10T20:22:22.824Z,5.70
2019-06-10T20:24:53.509Z,6.47
2019-06-10T20:27:24.975Z,5.47
2019-06-10T20:36:53.460Z,7.80
2019-06-10T20:39:24.843Z,5.72
2019-06-10T20:41:55.929Z,6.30
2019-06-10T20:47:53.384Z,6.35
2019-06-10T20:50:23.917Z,6.92
2019-06-10T20:52:54.213Z,6.53
2019-06-10T20:55:37.679Z,6.10
2019-06-10T20:58:03.541Z,6.20
2019-06-10T21:00:41.986Z,6.60
2019-06-10T21:03:10.288Z,5.97
2019-06-10T21:05:43.675Z,6.20
2019-06-10T21:08:15.438Z,6.10
2019-06-10T21:10:48.020Z,5.87
2019-06-10T21:13:17.746Z,5.70
2019-06-10T21:15:50.464Z,5.25
2019-06-10T21:18:22.421Z,4.97
2019-06-10T21:20:56.102Z,4.78
2019-06-10T21:23:24.063Z,4.22
2019-06-10T21:25:54.059Z,4.22
2019-06-10T21:28:24.615Z,3.52
2019-06-10T21:30:58.888Z,3.40
2019-06-10T21:33:27.015Z,3.72
2019-06-10T21:35:57.005Z,2.95
2019-06-10T21:38:27.358Z,3.00
2019-06-10T21:40:57.245Z,3.35
2019-06-10T21:43:27.554Z,3.80
2019-06-10T21:45:57.976Z,3.05
2019-06-10T21:48:27.981Z,3.33
2019-06-10T21:50:57.878Z,3.45
2019-06-10T21:53:27.820Z,3.92
2019-06-10T21:55:57.684Z,4.00
2019-06-10T21:58:27.962Z,3.60
2019-06-10T22:01:11.663Z,3.35
2019-06-10T22:03:32.258Z,3.27
2019-06-10T22:06:02.781Z,3.50
2019-06-10T22:08:33.600Z,3.47
2019-06-10T22:11:04.199Z,3.15
2019-06-10T22:13:34.506Z,3.50
2019-06-10T22:16:04.925Z,3.17
2019-06-10T22:18:34.884Z,3.37
2019-06-10T22:21:05.352Z,3.02
2019-06-10T22:23:35.573Z,3.08
2019-06-10T22:26:05.798Z,2.83
2019-06-10T22:28:35.631Z,2.20
2019-06-10T22:31:19.058Z,2.60
2019-06-10T22:33:37.179Z,2.70
2019-06-10T22:36:07.310Z,2.00
2019-06-10T22:38:37.529Z,1.92
2019-06-10T22:41:07.399Z,2.17
2019-06-10T22:43:37.678Z,2.00
2019-06-10T22:46:07.891Z,2.17
2019-06-10T22:48:38.113Z,2.12
2019-06-10T22:51:08.074Z,2.10
2019-06-10T22:53:38.283Z,1.80
2019-06-10T22:56:08.677Z,1.80
2019-06-10T22:58:39.012Z,2.00
2019-06-10T23:01:09.340Z,1.62
2019-06-10T23:03:39.543Z,1.72
2019-06-10T23:06:09.475Z,2.10
2019-06-10T23:08:39.705Z,1.65
2019-06-10T23:11:09.619Z,1.75
2019-06-10T23:13:42.314Z,1.60
2019-06-10T23:16:13.004Z,1.83
2019-06-10T23:18:46.408Z,2.10
2019-06-10T23:21:16.739Z,1.70
2019-06-10T23:23:47.237Z,1.90
2019-06-10T23:26:17.468Z,1.70
2019-06-10T23:28:49.800Z,2.25
2019-06-10T23:31:20.177Z,2.10
2019-06-10T23:33:50.287Z,2.12
2019-06-10T23:36:23.345Z,2.27
2019-06-10T23:38:52.812Z,2.43
2019-06-10T23:41:23.040Z,2.20
2019-06-10T23:43:53.085Z,2.27
2019-06-10T23:46:25.576Z,2.37
2019-06-10T23:48:57.417Z,2.00
2019-06-10T23:51:29.340Z,2.52
2019-06-10T23:54:02.001Z,2.55
2019-06-10T23:56:32.604Z,2.22
2019-06-10T23:59:03.493Z,2.35
